createdAt,value
2023-01-03T00:01:57.413Z,101596.94
2023-01-03T00:04:25.878Z,101595.19
2023-01-03T00:06:54.421Z,101597.09
2023-01-03T00:09:24.401Z,101606.91
2023-01-03T00:12:31.335Z,101600.81
2023-01-03T00:15:00.192Z,101615.16
2023-01-03T00:17:28.844Z,101618.69
2023-01-03T00:19:56.858Z,101609.03
2023-01-03T00:22:24.730Z,101614.38
2023-01-03T00:24:53.647Z,101618.94
2023-01-03T00:27:21.478Z,101621.66
2023-01-03T00:29:50.216Z,101622.50
2023-01-03T00:32:18.655Z,101627.88
2023-01-03T00:34:47.471Z,101624.38
2023-01-03T00:37:15.841Z,101635.09
2023-01-03T00:39:43.960Z,101644.88
2023-01-03T00:42:11.898Z,101636.91
2023-01-03T00:44:39.754Z,101636.91
2023-01-03T00:47:07.496Z,101625.44
2023-01-03T00:49:35.209Z,101620.97
2023-01-03T00:52:03.098Z,101616.53
2023-01-03T00:54:30.894Z,101625.38
2023-01-03T00:56:58.697Z,101614.78
2023-01-03T00:59:26.736Z,101621.75
2023-01-03T01:01:57.051Z,101611.19
2023-01-03T01:04:29.072Z,101612.91
2023-01-03T01:07:02.053Z,101624.50
2023-01-03T01:09:36.412Z,101614.81
2023-01-03T01:12:06.875Z,101612.28
2023-01-03T01:14:35.342Z,101620.28
2023-01-03T01:17:08.144Z,101622.88
2023-01-03T01:19:41.985Z,101625.59
2023-01-03T01:22:11.836Z,101636.25
2023-01-03T01:24:40.483Z,101635.38
2023-01-03T01:27:08.200Z,101643.34
2023-01-03T01:29:38.139Z,101651.25
2023-01-03T01:32:06.745Z,101645.03
2023-01-03T01:34:34.492Z,101655.63
2023-01-03T01:37:02.707Z,101656.53
2023-01-03T01:39:30.750Z,101651.16
2023-01-03T01:42:22.307Z,101663.53
2023-01-03T01:45:12.958Z,101653.84
2023-01-03T01:47:54.232Z,101665.41
2023-01-03T01:50:37.352Z,101665.41
2023-01-03T01:53:05.873Z,101656.53
2023-01-03T01:55:53.182Z,101655.63
2023-01-03T01:58:25.908Z,101654.00
2023-01-03T02:00:54.282Z,101657.50
2023-01-03T02:03:22.217Z,101653.09
2023-01-03T02:05:54.551Z,101659.28
2023-01-03T02:08:23.200Z,101656.69
2023-01-03T02:11:14.954Z,101657.56
2023-01-03T02:14:29.563Z,101669.19
2023-01-03T02:17:15.401Z,101664.84
2023-01-03T02:20:16.751Z,101648.00
2023-01-03T02:23:13.840Z,101653.41
2023-01-03T02:25:47.642Z,101653.31
2023-01-03T02:28:36.386Z,101663.09
2023-01-03T02:31:41.586Z,101656.09
2023-01-03T02:35:07.890Z,101650.03
2023-01-03T02:37:57.475Z,101638.53
2023-01-03T02:40:40.504Z,101645.59
2023-01-03T02:43:22.374Z,101643.91
2023-01-03T02:46:21.796Z,101642.16
2023-01-03T02:49:15.281Z,101659.88
2023-01-03T02:51:53.566Z,101657.28
2023-01-03T02:54:58.927Z,101650.25
2023-01-03T02:57:44.120Z,101662.66
2023-01-03T03:00:20.470Z,101653.84
2023-01-03T03:02:53.556Z,101658.28
2023-01-03T03:05:42.405Z,101660.97
2023-01-03T03:08:10.273Z,101665.47
2023-01-03T03:10:59.703Z,101655.72
2023-01-03T03:13:40.749Z,101667.22
2023-01-03T03:16:49.301Z,101660.22
2023-01-03T03:19:49.048Z,101672.69
2023-01-03T03:22:43.493Z,101669.28
2023-01-03T03:25:43.281Z,101674.59
2023-01-03T03:28:36.020Z,101679.94
2023-01-03T03:31:16.230Z,101674.59
2023-01-03T03:34:14.757Z,101677.28
2023-01-03T03:37:00.531Z,101682.59
2023-01-03T03:39:49.669Z,101683.50
2023-01-03T03:43:01.404Z,101679.09
2023-01-03T03:46:17.310Z,101688.06
2023-01-03T03:49:22.152Z,101679.19
2023-01-03T03:51:51.112Z,101676.66
2023-01-03T03:54:22.381Z,101677.47
2023-01-03T03:57:15.199Z,101672.22
2023-01-03T03:59:49.753Z,101673.06
2023-01-03T04:02:19.386Z,101673.06
2023-01-03T04:04:52.476Z,101681.88
2023-01-03T04:07:20.419Z,101675.78
2023-01-03T04:09:48.048Z,101679.34
2023-01-03T04:12:15.754Z,101679.47
2023-01-03T04:14:43.430Z,101691.03
2023-01-03T04:17:11.246Z,101699.91
2023-01-03T04:19:38.986Z,101703.50
2023-01-03T04:22:07.045Z,101706.22
2023-01-03T04:24:34.746Z,101695.66
2023-01-03T04:27:02.547Z,101694.72
2023-01-03T04:29:34.122Z,101697.41
2023-01-03T04:32:08.243Z,101693.91
2023-01-03T04:34:36.225Z,101693.03
2023-01-03T04:37:04.061Z,101693.94
2023-01-03T04:39:31.779Z,101694.91
2023-01-03T04:42:01.381Z,101693.13
2023-01-03T04:44:29.340Z,101697.59
2023-01-03T04:46:57.045Z,101692.28
2023-01-03T04:49:24.794Z,101693.19
2023-01-03T04:51:52.538Z,101693.22
2023-01-03T04:54:20.233Z,101694.97
2023-01-03T04:56:48.065Z,101694.09
2023-01-03T04:59:15.690Z,101695.03
2023-01-03T05:01:52.114Z,101703.88
2023-01-03T05:04:20.470Z,101703.03
2023-01-03T05:06:48.332Z,101697.78
2023-01-03T05:09:16.060Z,101694.22
2023-01-03T05:11:44.088Z,101700.44
2023-01-03T05:14:14.513Z,101695.97
2023-01-03T05:16:42.770Z,101690.69
2023-01-03T05:19:10.849Z,101693.31
2023-01-03T05:21:59.025Z,101703.00
2023-01-03T05:24:45.485Z,101701.28
2023-01-03T05:27:13.283Z,101700.47
2023-01-03T05:29:41.116Z,101718.06
2023-01-03T05:32:09.036Z,101711.00
2023-01-03T05:34:56.691Z,101716.34
2023-01-03T05:37:44.316Z,101725.25
2023-01-03T05:40:36.175Z,101719.03
2023-01-03T05:43:07.209Z,101727.94
2023-01-03T05:45:39.261Z,101734.13
2023-01-03T05:48:08.471Z,101731.50
2023-01-03T05:50:36.293Z,101736.78
2023-01-03T05:53:04.664Z,101732.38
2023-01-03T05:55:32.442Z,101732.38
2023-01-03T05:58:00.134Z,101732.41
2023-01-03T06:00:28.671Z,101715.63
2023-01-03T06:02:56.562Z,101729.72
2023-01-03T06:05:24.426Z,101732.41
2023-01-03T06:07:52.164Z,101735.06
2023-01-03T06:10:20.049Z,101728.03
2023-01-03T06:12:47.891Z,101729.88
2023-01-03T06:15:15.626Z,101734.34
2023-01-03T06:17:57.434Z,101734.38
2023-01-03T06:20:27.443Z,101734.34
2023-01-03T06:22:55.782Z,101737.03
2023-01-03T06:25:23.661Z,101733.50
2023-01-03T06:27:51.376Z,101746.78
2023-01-03T06:30:19.332Z,101736.22
2023-01-03T06:32:47.063Z,101752.06
2023-01-03T06:35:15.025Z,101752.06
2023-01-03T06:37:42.762Z,101752.13
2023-01-03T06:40:11.205Z,101749.50
2023-01-03T06:42:39.463Z,101749.56
2023-01-03T06:45:27.177Z,101736.38
2023-01-03T06:48:13.749Z,101749.66
2023-01-03T06:51:02.109Z,101738.16
2023-01-03T06:53:37.833Z,101739.00
2023-01-03T06:56:06.236Z,101743.47
2023-01-03T06:58:34.479Z,101747.06
2023-01-03T07:01:04.129Z,101748.00
2023-01-03T07:03:33.254Z,101751.63
2023-01-03T07:06:01.127Z,101749.91
2023-01-03T07:08:28.816Z,101756.13
2023-01-03T07:10:56.699Z,101751.75
2023-01-03T07:13:43.133Z,101751.75
2023-01-03T07:16:19.606Z,101743.88
2023-01-03T07:18:54.718Z,101751.84
2023-01-03T07:21:28.789Z,101765.97
2023-01-03T07:23:59.170Z,101759.81
2023-01-03T07:26:27.382Z,101775.78
2023-01-03T07:28:55.155Z,101766.06
2023-01-03T07:31:23.204Z,101790.81
2023-01-03T07:33:53.081Z,101777.50
2023-01-03T07:36:21.690Z,101781.03
2023-01-03T07:38:49.651Z,101778.38
2023-01-03T07:41:18.041Z,101775.72
2023-01-03T07:43:49.016Z,101786.31
2023-01-03T07:46:23.737Z,101781.91
2023-01-03T07:48:55.394Z,101787.19
2023-01-03T07:51:23.062Z,101803.22
2023-01-03T07:53:53.465Z,101808.50
2023-01-03T07:56:24.978Z,101804.09
2023-01-03T07:58:52.996Z,101805.06
2023-01-03T08:01:25.361Z,101809.41
2023-01-03T08:03:53.969Z,101797.97
2023-01-03T08:06:24.221Z,101810.28
2023-01-03T08:09:12.653Z,101812.06
2023-01-03T08:11:59.185Z,101820.91
2023-01-03T08:14:27.640Z,101819.13
2023-01-03T08:16:56.949Z,101829.72
2023-01-03T08:19:24.973Z,101834.13
2023-01-03T08:21:53.054Z,101821.75
2023-01-03T08:24:21.004Z,101835.03
2023-01-03T08:26:48.845Z,101834.16
2023-01-03T08:29:16.805Z,101829.72
2023-01-03T08:31:53.806Z,101832.38
2023-01-03T08:34:29.394Z,101825.31
2023-01-03T08:37:03.578Z,101837.69
2023-01-03T08:39:39.435Z,101846.53
2023-01-03T08:42:09.528Z,101846.56
2023-01-03T08:44:38.517Z,101841.31
2023-01-03T08:47:08.521Z,101859.88
2023-01-03T08:49:38.018Z,101851.06
2023-01-03T08:52:06.168Z,101859.03
2023-01-03T08:54:34.010Z,101853.69
2023-01-03T08:57:01.675Z,101848.34
2023-01-03T08:59:29.341Z,101861.59
2023-01-03T09:02:01.320Z,101850.94
2023-01-03T09:04:29.365Z,101860.66
2023-01-03T09:06:57.398Z,101865.06
2023-01-03T09:09:25.187Z,101861.53
2023-01-03T09:11:54.195Z,101861.53
2023-01-03T09:14:22.081Z,101872.13
2023-01-03T09:16:50.172Z,101872.16
2023-01-03T09:19:18.178Z,101883.63
2023-01-03T09:21:45.995Z,101873.03
2023-01-03T09:24:13.888Z,101886.28
2023-01-03T09:26:41.876Z,101873.03
2023-01-03T09:29:09.555Z,101882.72
2023-01-03T09:31:40.055Z,101873.84
2023-01-03T09:34:08.316Z,101889.69
2023-01-03T09:36:38.380Z,101881.66
2023-01-03T09:39:06.607Z,101878.06
2023-01-03T09:41:34.424Z,101883.34
2023-01-03T09:44:06.818Z,101879.66
2023-01-03T09:46:35.641Z,101897.28
2023-01-03T09:49:06.828Z,101890.13
2023-01-03T09:52:01.895Z,101887.38
2023-01-03T09:55:00.792Z,101891.66
2023-01-03T09:57:54.856Z,101888.03
2023-01-03T10:01:03.866Z,101898.56
2023-01-03T10:03:51.498Z,101892.22
2023-01-03T10:06:33.601Z,101887.69
2023-01-03T10:09:28.474Z,101886.72
2023-01-03T10:12:17.586Z,101877.75
2023-01-03T10:15:11.741Z,101887.47
2023-01-03T10:18:09.173Z,101876.84
2023-01-03T10:20:55.862Z,101879.44
2023-01-03T10:23:23.971Z,101882.09
2023-01-03T10:25:52.226Z,101867.81
2023-01-03T10:28:25.361Z,101859.81
2023-01-03T10:31:14.076Z,101868.53
2023-01-03T10:33:47.622Z,101861.47
2023-01-03T10:36:18.224Z,101865.84
2023-01-03T10:38:52.625Z,101869.41
2023-01-03T10:41:45.665Z,101866.69
2023-01-03T10:44:42.857Z,101859.59
2023-01-03T10:47:17.446Z,101856.91
2023-01-03T10:49:47.354Z,101864.84
2023-01-03T10:52:20.170Z,101856.75
2023-01-03T10:54:55.760Z,101852.28
2023-01-03T10:57:39.230Z,101860.22
2023-01-03T11:00:23.096Z,101852.25
2023-01-03T11:02:51.649Z,101861.13
2023-01-03T11:05:26.464Z,101855.66
2023-01-03T11:08:01.969Z,101854.72
2023-01-03T11:10:39.967Z,101852.00
2023-01-03T11:13:23.593Z,101855.44
2023-01-03T11:15:57.657Z,101848.31
2023-01-03T11:18:30.088Z,101856.25
2023-01-03T11:21:23.403Z,101857.00
2023-01-03T11:24:30.515Z,101851.69
2023-01-03T11:27:21.473Z,101851.66
2023-01-03T11:30:15.901Z,101842.72
2023-01-03T11:33:13.833Z,101840.00
2023-01-03T11:36:16.242Z,101839.06
2023-01-03T11:39:15.638Z,101841.63
2023-01-03T11:41:58.422Z,101841.63
2023-01-03T11:45:11.217Z,101843.31
2023-01-03T11:48:11.383Z,101843.22
2023-01-03T11:51:16.868Z,101836.06
2023-01-03T11:54:11.812Z,101837.72
2023-01-03T11:56:47.166Z,101826.13
2023-01-03T11:59:36.961Z,101825.97
2023-01-03T12:02:56.036Z,101822.38
2023-01-03T12:05:45.149Z,101819.59
2023-01-03T12:08:28.199Z,101811.50
2023-01-03T12:11:15.430Z,101804.44
2023-01-03T12:13:59.463Z,101809.63
2023-01-03T12:17:00.832Z,101808.59
2023-01-03T12:20:11.073Z,101802.28
2023-01-03T12:23:04.835Z,101801.22
2023-01-03T12:25:38.141Z,101806.41
2023-01-03T12:28:11.826Z,101812.34
2023-01-03T12:30:48.347Z,101807.78
2023-01-03T12:33:46.707Z,101813.72
2023-01-03T12:36:48.105Z,101798.44
2023-01-03T12:39:46.563Z,101802.78
2023-01-03T12:42:33.083Z,101796.38
2023-01-03T12:45:11.907Z,101787.31
2023-01-03T12:47:49.851Z,101798.75
2023-01-03T12:50:28.414Z,101799.47
2023-01-03T12:53:15.575Z,101787.69
2023-01-03T12:56:19.886Z,101784.03
2023-01-03T12:59:10.848Z,101782.91
2023-01-03T13:01:58.991Z,101777.59
2023-01-03T13:04:36.399Z,101769.44
2023-01-03T13:07:19.942Z,101768.34
2023-01-03T13:10:17.038Z,101772.78
2023-01-03T13:12:54.729Z,101763.97
2023-01-03T13:15:36.651Z,101769.09
2023-01-03T13:18:23.722Z,101765.50
2023-01-03T13:20:55.392Z,101753.16
2023-01-03T13:23:42.293Z,101767.28
2023-01-03T13:26:27.624Z,101759.28
2023-01-03T13:29:33.732Z,101767.34
2023-01-03T13:32:24.095Z,101766.38
2023-01-03T13:34:54.665Z,101751.25
2023-01-03T13:37:45.427Z,101761.94
2023-01-03T13:41:08.092Z,101755.84
2023-01-03T13:43:39.492Z,101741.78
2023-01-03T13:46:27.662Z,101745.44
2023-01-03T13:49:08.041Z,101733.00
2023-01-03T13:51:54.936Z,101741.06
2023-01-03T13:54:24.909Z,101743.03
2023-01-03T13:56:52.785Z,101755.50
2023-01-03T13:59:42.848Z,101746.66
2023-01-03T14:02:13.379Z,101752.09
2023-01-03T14:05:20.948Z,101750.34
2023-01-03T14:08:24.131Z,101751.34
2023-01-03T14:11:16.589Z,101756.69
2023-01-03T14:13:49.779Z,101754.09
2023-01-03T14:16:23.721Z,101740.72
2023-01-03T14:19:04.066Z,101745.19
2023-01-03T14:21:45.160Z,101749.66
2023-01-03T14:24:34.996Z,101742.59
2023-01-03T14:27:17.398Z,101747.09
2023-01-03T14:29:53.290Z,101743.56
2023-01-03T14:32:33.698Z,101733.84
2023-01-03T14:35:03.859Z,101743.66
2023-01-03T14:37:34.893Z,101744.53
2023-01-03T14:40:07.172Z,101741.88
2023-01-03T14:42:34.820Z,101743.63
2023-01-03T14:45:07.002Z,101756.00
2023-01-03T14:47:39.136Z,101756.91
2023-01-03T14:50:15.764Z,101756.94
2023-01-03T14:52:47.214Z,101750.00
2023-01-03T14:55:18.925Z,101752.63
2023-01-03T14:57:49.394Z,101756.16
2023-01-03T15:00:28.279Z,101755.34
2023-01-03T15:03:01.901Z,101745.69
2023-01-03T15:05:38.561Z,101743.91
2023-01-03T15:08:15.139Z,101749.28
2023-01-03T15:10:51.288Z,101751.19
2023-01-03T15:13:50.319Z,101752.22
2023-01-03T15:16:31.587Z,101755.91
2023-01-03T15:19:06.023Z,101761.31
2023-01-03T15:21:34.038Z,101765.97
2023-01-03T15:24:02.123Z,101767.72
2023-01-03T15:26:42.020Z,101781.88
2023-01-03T15:29:17.207Z,101781.06
2023-01-03T15:31:53.917Z,101776.66
2023-01-03T15:34:30.766Z,101782.97
2023-01-03T15:37:22.681Z,101765.31
2023-01-03T15:39:55.667Z,101781.44
2023-01-03T15:42:54.509Z,101785.88
2023-01-03T15:45:38.987Z,101787.88
2023-01-03T15:48:14.571Z,101794.19
2023-01-03T15:50:51.753Z,101790.63
2023-01-03T15:53:26.914Z,101802.28
2023-01-03T15:56:03.586Z,101792.63
2023-01-03T15:58:32.577Z,101803.34
2023-01-03T16:01:01.057Z,101795.38
2023-01-03T16:03:34.181Z,101795.41
2023-01-03T16:06:02.753Z,101796.38
2023-01-03T16:08:38.174Z,101796.38
2023-01-03T16:11:18.431Z,101797.28
2023-01-03T16:14:02.426Z,101794.81
2023-01-03T16:16:38.140Z,101803.81
2023-01-03T16:19:07.312Z,101808.28
2023-01-03T16:21:35.081Z,101798.59
2023-01-03T16:24:02.880Z,101802.09
2023-01-03T16:26:30.668Z,101792.41
2023-01-03T16:28:59.433Z,101801.28
2023-01-03T16:31:32.838Z,101800.41
2023-01-03T16:34:05.519Z,101803.97
2023-01-03T16:36:40.179Z,101803.16
2023-01-03T16:39:23.373Z,101812.94
2023-01-03T16:42:13.741Z,101810.44
2023-01-03T16:44:50.309Z,101804.38
2023-01-03T16:47:24.715Z,101803.53
2023-01-03T16:50:03.809Z,101805.34
2023-01-03T16:52:38.551Z,101813.34
2023-01-03T16:55:32.207Z,101818.66
2023-01-03T16:58:00.551Z,101815.25
2023-01-03T17:00:32.121Z,101818.75
2023-01-03T17:03:00.922Z,101820.13
2023-01-03T17:05:33.815Z,101828.06
2023-01-03T17:08:16.050Z,101826.34
2023-01-03T17:10:47.797Z,101822.88
2023-01-03T17:13:39.183Z,101807.00
2023-01-03T17:16:19.510Z,101817.56
2023-01-03T17:18:48.830Z,101822.97
2023-01-03T17:21:34.922Z,101817.56
2023-01-03T17:24:07.601Z,101815.03
2023-01-03T17:26:36.139Z,101819.50
2023-01-03T17:29:06.959Z,101815.16
2023-01-03T17:31:34.747Z,101813.44
2023-01-03T17:34:26.743Z,101826.69
2023-01-03T17:36:56.195Z,101820.53
2023-01-03T17:39:25.070Z,101824.97
2023-01-03T17:42:12.099Z,101823.19
2023-01-03T17:44:40.336Z,101813.56
2023-01-03T17:47:40.048Z,101832.88
2023-01-03T17:50:09.858Z,101837.41
2023-01-03T17:52:38.660Z,101838.25
2023-01-03T17:55:24.269Z,101849.78
2023-01-03T17:57:52.666Z,101854.31
2023-01-03T18:00:25.389Z,101845.47
2023-01-03T18:02:56.155Z,101852.63
2023-01-03T18:05:28.547Z,101835.91
2023-01-03T18:07:59.557Z,101854.38
2023-01-03T18:10:47.912Z,101854.31
2023-01-03T18:13:33.466Z,101856.03
2023-01-03T18:16:01.651Z,101862.28
2023-01-03T18:18:30.564Z,101867.50
2023-01-03T18:20:59.112Z,101863.06
2023-01-03T18:23:37.835Z,101869.22
2023-01-03T18:26:10.436Z,101875.38
2023-01-03T18:28:38.241Z,101881.56
2023-01-03T18:31:07.321Z,101868.16
2023-01-03T18:33:35.243Z,101867.28
2023-01-03T18:36:03.111Z,101862.78
2023-01-03T18:38:38.081Z,101860.91
2023-01-03T18:41:06.446Z,101859.16
2023-01-03T18:43:34.457Z,101865.38
2023-01-03T18:46:02.329Z,101875.97
2023-01-03T18:48:30.278Z,101868.84
2023-01-03T18:50:59.931Z,101869.81
2023-01-03T18:53:34.022Z,101854.78
2023-01-03T18:56:02.777Z,101869.13
2023-01-03T18:58:37.688Z,101866.53
2023-01-03T19:01:07.419Z,101870.28
2023-01-03T19:03:39.573Z,101876.50
2023-01-03T19:06:20.269Z,101870.34
2023-01-03T19:08:48.683Z,101865.06
2023-01-03T19:11:23.093Z,101867.75
2023-01-03T19:13:54.788Z,101863.34
2023-01-03T19:16:26.472Z,101858.00
2023-01-03T19:18:55.565Z,101858.00
2023-01-03T19:21:24.478Z,101857.94
2023-01-03T19:24:05.606Z,101868.56
2023-01-03T19:26:38.524Z,101865.13
2023-01-03T19:29:16.781Z,101866.00
2023-01-03T19:31:47.400Z,101846.63
2023-01-03T19:34:20.987Z,101870.56
2023-01-03T19:36:49.434Z,101878.50
2023-01-03T19:39:24.746Z,101872.25
2023-01-03T19:42:18.317Z,101878.50
2023-01-03T19:44:48.417Z,101875.84
2023-01-03T19:47:19.938Z,101868.69
2023-01-03T19:49:48.098Z,101871.59
2023-01-03T19:52:17.028Z,101865.28
2023-01-03T19:54:45.371Z,101854.63
2023-01-03T19:57:30.141Z,101849.25
2023-01-03T20:00:00.491Z,101841.28
2023-01-03T20:02:39.665Z,101846.53
2023-01-03T20:05:24.784Z,101834.13
2023-01-03T20:07:53.603Z,101835.94
2023-01-03T20:10:24.616Z,101848.34
2023-01-03T20:12:55.659Z,101848.38
2023-01-03T20:15:28.301Z,101853.72
2023-01-03T20:17:56.677Z,101839.53
2023-01-03T20:20:29.531Z,101845.69
2023-01-03T20:23:07.597Z,101843.91
2023-01-03T20:25:37.247Z,101843.03
2023-01-03T20:28:05.800Z,101837.72
2023-01-03T20:30:34.451Z,101827.97
2023-01-03T20:33:02.209Z,101832.41
2023-01-03T20:38:24.900Z,101831.53
2023-01-03T20:40:56.553Z,101823.56
2023-01-03T20:43:24.957Z,101829.06
2023-01-03T20:45:58.105Z,101825.41
2023-01-03T20:48:27.049Z,101826.28
2023-01-03T20:50:55.245Z,101829.78
2023-01-03T20:53:26.308Z,101824.44
2023-01-03T20:55:54.502Z,101816.59
2023-01-03T20:58:25.762Z,101812.97
2023-01-03T21:01:02.083Z,101813.03
2023-01-03T21:03:37.060Z,101806.84
2023-01-03T21:06:21.708Z,101801.53
2023-01-03T21:08:56.250Z,101799.78
2023-01-03T21:11:31.285Z,101801.56
2023-01-03T21:14:00.867Z,101790.16
2023-01-03T21:16:41.718Z,101794.53
2023-01-03T21:19:19.153Z,101786.69
2023-01-03T21:21:55.191Z,101785.84
2023-01-03T21:24:25.872Z,101792.03
2023-01-03T21:26:54.536Z,101784.09
2023-01-03T21:29:24.999Z,101786.72
2023-01-03T21:31:54.187Z,101799.19
2023-01-03T21:34:23.802Z,101773.56
2023-01-03T21:36:56.679Z,101794.78
2023-01-03T21:39:28.111Z,101786.88
2023-01-03T21:42:16.476Z,101788.69
2023-01-03T21:44:46.406Z,101787.84
2023-01-03T21:47:24.382Z,101785.19
2023-01-03T21:50:45.046Z,101788.81
2023-01-03T21:53:18.499Z,101788.81
2023-01-03T21:55:47.953Z,101795.00
2023-01-03T21:58:20.222Z,101788.78
2023-01-03T22:00:48.359Z,101789.69
2023-01-03T22:03:46.511Z,101795.06
2023-01-03T22:06:17.183Z,101780.97
2023-01-03T22:08:46.932Z,101780.09
2023-01-03T22:11:15.514Z,101776.63
2023-01-03T22:13:43.739Z,101774.00
2023-01-03T22:16:11.945Z,101770.53
2023-01-03T22:18:44.742Z,101782.97
2023-01-03T22:21:13.918Z,101778.56
2023-01-03T22:23:43.056Z,101763.53
2023-01-03T22:26:17.775Z,101746.72
2023-01-03T22:28:47.217Z,101732.56
2023-01-03T22:31:23.896Z,101744.09
2023-01-03T22:33:52.897Z,101746.78
2023-01-03T22:36:20.870Z,101758.31
2023-01-03T22:38:49.030Z,101756.59
2023-01-03T22:41:18.922Z,101761.00
2023-01-03T22:43:52.574Z,101758.41
2023-01-03T22:46:23.123Z,101772.59
2023-01-03T22:48:51.369Z,101767.38
2023-01-03T22:51:22.924Z,101764.75
2023-01-03T22:53:51.905Z,101778.94
2023-01-03T22:56:21.865Z,101766.59
2023-01-03T22:58:51.454Z,101774.56
2023-01-03T23:01:28.380Z,101779.03
2023-01-03T23:04:03.587Z,101779.09
2023-01-03T23:06:36.431Z,101775.56
2023-01-03T23:09:05.659Z,101752.69
2023-01-03T23:11:53.052Z,101772.94
2023-01-03T23:14:25.220Z,101769.47
2023-01-03T23:16:57.674Z,101752.69
2023-01-03T23:19:27.776Z,101761.50
2023-01-03T23:21:58.329Z,101751.78
2023-01-03T23:24:26.549Z,101743.84
2023-01-03T23:26:54.867Z,101750.00
2023-01-03T23:29:23.049Z,101749.94
2023-01-03T23:31:52.925Z,101732.28
2023-01-03T23:34:40.758Z,101740.22
2023-01-03T23:37:08.784Z,101728.72
2023-01-03T23:39:37.275Z,101730.38
2023-01-03T23:42:05.944Z,101725.09
2023-01-03T23:44:35.042Z,101721.53
2023-01-03T23:47:11.356Z,101722.44
2023-01-03T23:49:40.744Z,101728.63
2023-01-03T23:52:22.106Z,101709.16
2023-01-03T23:54:59.554Z,101703.00
2023-01-03T23:57:29.921Z,101712.69
2023-01-03T23:59:59.035Z,101719.75
